Elk Creek, NY

11:07 PM EST on January 31, 2015 (GMT -0500)
Griffiss | Change Station
CLOSE
Current Station
Airport
Location: Rome,
Elevation: 505 ft
Nearby Weather Stations
Active Advisory: Winter Storm Warning

Elev 505 ft 43.23 °N, 75.41 °W | Updated 14 minutes ago

Overcast
Overcast
10 °F
Feels Like 10 °F
N
0
Wind Variable Wind from North

Today
High -- | Low -- °F
--% Chance of Precip.
Yesterday
High -- | Low -- °F
Precip. -- in
7:14 AM 5:11 PM
Waxing Gibbous, 93% visible
Pressure 30.22 in
Visibility 9.0 miles
Clouds Overcast 3400 ft
Dew Point 5 °F
Humidity 80%
Rainfall 0.00 in
Snow Depth Not available.
UV 0 out of 12
Pollen .10 out of 12
Air Quality Not available.
Flu Activity Not available.
METAR KRME 010353Z AUTO 00000KT 9SM OVC034 M12/M15 A3018 RMK AO2 SNE51 SLP231 P0000 T11221150

More Conditions Fewer Conditions

Pressure 30.22 in
Visibility 9.0 miles
Clouds Overcast 3400 ft
Dew Point 5 °F
Humidity 80%
Rainfall 0.00 in
Snow Depth Not available.
UV 0 out of 12
Pollen .10 out of 12
Air Quality Not available.
Flu Activity Not available.
METAR KRME 010353Z AUTO 00000KT 9SM OVC034 M12/M15 A3018 RMK AO2 SNE51 SLP231 P0000 T11221150

More Conditions Fewer Conditions

10-Day Weather Forecast

Almanac

Astronomy

Jan. 31, 2015 Rise Set
Actual Time
Civil Twilight
Nautical Twilight
Astronomical Twilight
Moon
Length of Visible Light
Length of Day
Tomorrow will be .
, % of the Moon is Illuminated

Today's Extremes

State Highs State Lows

Community

WunderPhotos

Upload Photos

1,792,300 photos uploaded!

WunderBlogs® & News

Nearby

Air Quality

  Air Quality AQ Index Pollutant
Not available.

Snow Depth

Station Depth Elevation

Earthquake Activity

City Distance Mag. Time & Date
Minimum magnitude displayed is 2.5.

Coastal Water Temperatures

Place Temperature

Nearby Weather Stations